Time;durP1;ratioP1;P1;durP2;ratioP2;P2;SDS_P1;SDS_P2;PMS_P1;PMS_P2;Temp;Humidity;BMP_temperature;BMP_pressure;BME280_temperature;BME280_humidity;BME280_pressure;Samples;Min_cycle;Max_cycle;Signal;HPM_P1;HPM_P2
2021/09/04 00:00:47;;;;;;;13.60;7.63;;;13.40;99.90;;;;;;4424261;32;20181;-69
2021/09/04 00:03:14;;;;;;;14.00;7.53;;;13.30;99.90;;;;;;4424356;32;20162;-70
2021/09/04 00:05:41;;;;;;;12.23;7.10;;;13.20;99.90;;;;;;4424291;32;20127;-70
2021/09/04 00:08:07;;;;;;;12.53;6.73;;;13.20;99.90;;;;;;4424179;32;20138;-69
2021/09/04 00:10:34;;;;;;;11.33;6.23;;;13.20;99.90;;;;;;4425239;32;20192;-69
2021/09/04 00:13:01;;;;;;;14.77;6.90;;;13.10;99.90;;;;;;4423777;32;20192;-69
2021/09/04 00:15:28;;;;;;;14.57;6.90;;;13.10;99.90;;;;;;4424586;32;20131;-69
2021/09/04 00:17:55;;;;;;;13.80;6.53;;;13.00;99.90;;;;;;4423663;32;20128;-69
2021/09/04 00:20:22;;;;;;;13.00;6.43;;;13.00;99.90;;;;;;4424973;32;20162;-69
2021/09/04 00:22:49;;;;;;;11.83;6.33;;;12.90;99.90;;;;;;4424004;32;20131;-69
2021/09/04 00:25:15;;;;;;;11.73;5.57;;;12.90;99.90;;;;;;4424473;32;20184;-69
2021/09/04 00:27:42;;;;;;;10.83;5.63;;;12.80;99.90;;;;;;4423724;32;20233;-69
2021/09/04 00:30:13;;;;;;;10.50;5.30;;;12.80;99.90;;;;;;4425389;32;20131;-70
2021/09/04 00:32:40;;;;;;;11.33;5.57;;;12.70;99.90;;;;;;4425466;32;20423;-69
2021/09/04 00:35:07;;;;;;;10.93;5.30;;;12.70;99.90;;;;;;4425441;32;20222;-69
2021/09/04 00:37:35;;;;;;;11.43;5.40;;;12.60;99.90;;;;;;4423782;32;20151;-69
2021/09/04 00:40:04;;;;;;;9.57;4.93;;;12.50;99.90;;;;;;4424356;32;20162;-70
2021/09/04 00:42:31;;;;;;;11.43;5.00;;;12.50;99.90;;;;;;4424411;32;20193;-69
2021/09/04 00:44:58;;;;;;;10.17;5.13;;;12.40;99.90;;;;;;4424566;32;20172;-69
2021/09/04 00:47:24;;;;;;;10.30;4.90;;;12.40;99.90;;;;;;4423147;32;20159;-69
2021/09/04 00:49:51;;;;;;;11.63;4.97;;;12.40;99.90;;;;;;4423404;32;20133;-69
2021/09/04 00:52:18;;;;;;;10.93;4.90;;;12.30;99.90;;;;;;4424605;32;20177;-69
2021/09/04 00:54:46;;;;;;;11.47;4.93;;;12.30;99.90;;;;;;4423742;32;20150;-70
2021/09/04 00:57:18;;;;;;;10.20;5.40;;;12.30;99.90;;;;;;4425119;32;20173;-70
2021/09/04 00:59:44;;;;;;;12.73;5.37;;;12.30;99.90;;;;;;4424062;32;20130;-70
2021/09/04 01:02:16;;;;;;;11.60;5.43;;;12.30;99.90;;;;;;4423614;32;20219;-70
2021/09/04 01:04:44;;;;;;;11.47;5.50;;;12.20;99.90;;;;;;4424936;32;20127;-70
2021/09/04 01:07:11;;;;;;;10.97;5.50;;;12.20;99.90;;;;;;4423891;32;20449;-69
2021/09/04 01:09:39;;;;;;;9.47;5.30;;;12.10;99.90;;;;;;4424243;32;20151;-69
2021/09/04 01:12:07;;;;;;;12.03;5.80;;;12.20;99.90;;;;;;4422667;32;20180;-70
2021/09/04 01:14:34;;;;;;;11.70;6.07;;;12.10;99.90;;;;;;4423426;32;20138;-69
2021/09/04 01:17:01;;;;;;;13.90;6.80;;;12.10;99.90;;;;;;4423842;32;20436;-69
2021/09/04 01:19:27;;;;;;;14.13;6.47;;;12.10;99.90;;;;;;4424722;32;20126;-69
2021/09/04 01:21:54;;;;;;;13.03;5.77;;;12.00;99.90;;;;;;4423236;32;20155;-71
2021/09/04 01:24:21;;;;;;;13.13;6.30;;;12.00;99.90;;;;;;4425099;32;20202;-70
2021/09/04 01:26:48;;;;;;;12.87;6.20;;;12.00;99.90;;;;;;4423731;32;20149;-69
2021/09/04 01:29:15;;;;;;;11.03;5.50;;;12.00;99.90;;;;;;4422959;32;20130;-69
2021/09/04 01:31:42;;;;;;;10.87;5.53;;;11.90;99.90;;;;;;4423174;32;20190;-70
2021/09/04 01:34:08;;;;;;;9.87;5.37;;;11.90;99.90;;;;;;4422716;32;20143;-69
2021/09/04 01:36:37;;;;;;;9.03;4.90;;;11.90;99.90;;;;;;4425075;32;20123;-69
2021/09/04 01:39:06;;;;;;;10.37;4.73;;;11.90;99.90;;;;;;4427812;32;20127;-69
2021/09/04 01:41:34;;;;;;;8.73;4.70;;;11.80;99.90;;;;;;4427621;32;20348;-69
2021/09/04 01:44:00;;;;;;;11.93;4.90;;;11.80;99.90;;;;;;4426056;32;20282;-69
2021/09/04 01:46:28;;;;;;;10.43;4.53;;;11.80;99.90;;;;;;4426055;32;20147;-69
2021/09/04 01:48:54;;;;;;;9.70;4.70;;;11.80;99.90;;;;;;4427962;32;20254;-69
2021/09/04 01:51:21;;;;;;;9.77;4.90;;;11.80;99.90;;;;;;4426315;32;20344;-69
2021/09/04 01:53:48;;;;;;;8.60;4.43;;;11.70;99.90;;;;;;4425725;32;20514;-70
2021/09/04 01:56:15;;;;;;;9.30;4.47;;;11.70;99.90;;;;;;4432636;32;20219;-69
2021/09/04 01:58:42;;;;;;;9.77;4.40;;;11.60;99.90;;;;;;4443101;32;20199;-69
2021/09/04 02:01:09;;;;;;;8.03;4.63;;;11.60;99.90;;;;;;4440791;32;20135;-69
2021/09/04 02:03:36;;;;;;;11.27;4.90;;;11.60;99.90;;;;;;4441394;32;20147;-69
2021/09/04 02:06:04;;;;;;;11.03;4.83;;;11.60;99.90;;;;;;4443093;32;20207;-69
2021/09/04 02:08:32;;;;;;;10.23;5.00;;;11.50;99.90;;;;;;4442880;32;20176;-69
2021/09/04 02:10:59;;;;;;;10.80;4.80;;;11.50;99.90;;;;;;4442656;32;20163;-69
2021/09/04 02:13:27;;;;;;;9.77;4.80;;;11.40;99.90;;;;;;4441721;32;20201;-69
2021/09/04 02:15:55;;;;;;;9.63;4.93;;;11.40;99.90;;;;;;4442111;32;20154;-69
2021/09/04 02:18:22;;;;;;;10.67;4.70;;;11.40;99.90;;;;;;4441570;32;20203;-69
2021/09/04 02:20:49;;;;;;;10.13;4.40;;;11.30;99.90;;;;;;4442578;32;20299;-71
2021/09/04 02:23:16;;;;;;;10.43;4.40;;;11.30;99.90;;;;;;4441097;32;20143;-69
2021/09/04 02:25:44;;;;;;;9.17;4.37;;;11.30;99.90;;;;;;4439799;32;20612;-69
2021/09/04 02:28:14;;;;;;;9.87;4.10;;;11.30;99.90;;;;;;4433990;32;20139;-69
2021/09/04 02:30:41;;;;;;;8.13;4.30;;;11.30;99.90;;;;;;4425574;32;20132;-69
2021/09/04 02:33:10;;;;;;;7.47;4.20;;;11.20;99.90;;;;;;4427264;32;20150;-70
2021/09/04 02:35:37;;;;;;;8.53;4.00;;;11.20;99.90;;;;;;4427068;32;20130;-70
2021/09/04 02:38:03;;;;;;;10.03;4.07;;;11.20;99.90;;;;;;4425468;32;20127;-70
2021/09/04 02:40:30;;;;;;;7.57;3.80;;;11.20;99.90;;;;;;4426315;32;20195;-69
2021/09/04 02:42:57;;;;;;;9.57;4.20;;;11.20;99.90;;;;;;4425697;32;20452;-68
2021/09/04 02:45:24;;;;;;;8.57;4.00;;;11.10;99.90;;;;;;4426244;32;20127;-69
2021/09/04 02:47:50;;;;;;;7.80;3.80;;;11.10;99.90;;;;;;4424763;32;20204;-77
2021/09/04 02:50:17;;;;;;;8.33;4.00;;;11.00;99.90;;;;;;4425447;32;20148;-69
2021/09/04 02:52:44;;;;;;;9.53;3.67;;;11.00;99.90;;;;;;4426908;32;20132;-70
2021/09/04 02:55:11;;;;;;;8.97;3.60;;;11.00;99.90;;;;;;4425423;32;20180;-70
2021/09/04 02:57:37;;;;;;;8.53;3.43;;;11.00;99.90;;;;;;4426112;32;20180;-69
2021/09/04 03:00:05;;;;;;;8.00;4.07;;;10.90;99.90;;;;;;4425193;32;20405;-70
2021/09/04 03:02:32;;;;;;;7.87;3.80;;;10.90;99.90;;;;;;4425858;32;20594;-69
2021/09/04 03:04:59;;;;;;;7.00;3.20;;;10.90;99.90;;;;;;4425393;32;20587;-69
2021/09/04 03:07:26;;;;;;;6.37;3.33;;;10.80;99.90;;;;;;4425935;32;20181;-69
2021/09/04 03:09:53;;;;;;;6.17;3.13;;;10.80;99.90;;;;;;4425935;32;20181;-69
2021/09/04 03:12:20;;;;;;;8.27;3.33;;;10.70;99.90;;;;;;4424821;32;20521;-70
2021/09/04 03:14:47;;;;;;;9.53;3.70;;;10.80;99.90;;;;;;4426424;32;20422;-69
2021/09/04 03:17:13;;;;;;;6.77;3.20;;;10.80;99.90;;;;;;4424493;32;20205;-69
2021/09/04 03:19:40;;;;;;;8.20;3.50;;;10.70;99.90;;;;;;4424901;32;20438;-69
2021/09/04 03:22:07;;;;;;;6.50;3.30;;;10.70;99.90;;;;;;4424763;32;20132;-69
2021/09/04 03:24:35;;;;;;;7.13;3.60;;;10.60;99.90;;;;;;4425742;32;20524;-69
2021/09/04 03:27:03;;;;;;;7.00;3.20;;;10.70;99.90;;;;;;4426096;32;20580;-69
2021/09/04 03:29:30;;;;;;;6.50;3.70;;;10.60;99.90;;;;;;4426287;32;20144;-69
2021/09/04 03:31:57;;;;;;;5.67;3.30;;;10.60;99.90;;;;;;4424640;32;20172;-69
2021/09/04 03:34:24;;;;;;;7.83;3.20;;;10.60;99.90;;;;;;4426508;32;20401;-69
2021/09/04 03:36:50;;;;;;;7.23;3.50;;;10.60;99.90;;;;;;4425011;32;20182;-69
2021/09/04 03:39:17;;;;;;;8.20;3.17;;;10.60;99.90;;;;;;4426352;32;20132;-69
2021/09/04 03:41:44;;;;;;;8.53;3.60;;;10.60;99.90;;;;;;4424369;32;20145;-69
2021/09/04 03:44:11;;;;;;;7.87;3.10;;;10.60;99.90;;;;;;4423882;32;20175;-69
2021/09/04 03:46:37;;;;;;;6.73;3.17;;;10.60;99.90;;;;;;4425925;32;20167;-69
2021/09/04 03:49:04;;;;;;;7.20;3.30;;;10.50;99.90;;;;;;4424118;32;20176;-69
2021/09/04 03:51:31;;;;;;;6.37;2.90;;;10.50;99.90;;;;;;4424306;32;20191;-69
2021/09/04 03:53:59;;;;;;;6.03;3.17;;;10.50;99.90;;;;;;4425844;32;20155;-69
2021/09/04 03:56:26;;;;;;;6.07;3.50;;;10.50;99.90;;;;;;4425121;32;20402;-69
2021/09/04 03:58:53;;;;;;;5.63;3.00;;;10.40;99.90;;;;;;4423587;32;20162;-70
2021/09/04 04:01:20;;;;;;;7.57;3.00;;;10.40;99.90;;;;;;4425919;32;20390;-70
2021/09/04 04:03:47;;;;;;;6.90;3.20;;;10.30;99.90;;;;;;4424342;32;20180;-69
2021/09/04 04:06:14;;;;;;;6.20;3.60;;;10.30;99.90;;;;;;4426022;32;20131;-69
2021/09/04 04:08:41;;;;;;;6.13;3.13;;;10.30;99.90;;;;;;4425724;32;20237;-69
2021/09/04 04:11:10;;;;;;;5.93;3.10;;;10.30;99.90;;;;;;4425469;32;20198;-69
2021/09/04 04:13:38;;;;;;;5.77;2.93;;;10.30;99.90;;;;;;4425632;32;20139;-69
2021/09/04 04:16:05;;;;;;;6.97;3.33;;;10.30;99.90;;;;;;4424314;32;20162;-69
2021/09/04 04:18:35;;;;;;;7.10;3.13;;;10.30;99.90;;;;;;4425807;32;20159;-69
2021/09/04 04:21:03;;;;;;;7.03;3.10;;;10.30;99.90;;;;;;4425060;32;20131;-69
2021/09/04 04:23:30;;;;;;;5.63;2.90;;;10.30;99.90;;;;;;4424217;32;20196;-68
2021/09/04 04:25:57;;;;;;;4.67;3.00;;;10.20;99.90;;;;;;4423812;32;20176;-68
2021/09/04 04:28:24;;;;;;;6.40;2.80;;;10.20;99.90;;;;;;4423571;32;20128;-69
2021/09/04 04:30:51;;;;;;;5.93;3.10;;;10.30;99.90;;;;;;4425591;32;20518;-69
2021/09/04 04:33:18;;;;;;;5.27;2.90;;;10.30;99.90;;;;;;4425657;32;20328;-69
2021/09/04 04:35:45;;;;;;;6.37;3.40;;;10.30;99.90;;;;;;4422667;32;20251;-68
2021/09/04 04:38:11;;;;;;;6.93;3.07;;;10.30;99.90;;;;;;4424615;32;20182;-69
2021/09/04 04:40:38;;;;;;;9.80;3.57;;;10.40;99.90;;;;;;4424242;32;20203;-69
2021/09/04 04:43:05;;;;;;;7.67;3.33;;;10.30;99.90;;;;;;4424945;32;20143;-69
2021/09/04 04:45:32;;;;;;;8.77;3.40;;;10.40;99.90;;;;;;4423706;32;20127;-69
2021/09/04 04:47:59;;;;;;;8.00;3.70;;;10.40;99.90;;;;;;4423850;32;20162;-69
2021/09/04 04:50:25;;;;;;;7.93;3.33;;;10.40;99.90;;;;;;4425195;32;20123;-70
2021/09/04 04:52:52;;;;;;;6.03;3.33;;;10.40;99.90;;;;;;4423913;32;20126;-69
2021/09/04 04:55:19;;;;;;;6.53;3.13;;;10.40;99.90;;;;;;4425254;32;20172;-69
2021/09/04 04:57:46;;;;;;;6.53;3.30;;;10.40;99.90;;;;;;4423511;32;20184;-69
2021/09/04 05:00:13;;;;;;;8.23;3.30;;;10.40;99.90;;;;;;4423841;32;20127;-69
2021/09/04 05:02:39;;;;;;;5.97;3.40;;;10.40;99.90;;;;;;4425206;32;20200;-69
2021/09/04 05:05:09;;;;;;;6.20;3.20;;;10.40;99.90;;;;;;4423957;32;20437;-69
2021/09/04 05:07:36;;;;;;;7.97;3.40;;;10.40;99.90;;;;;;4424299;32;20131;-69
2021/09/04 05:10:04;;;;;;;6.70;3.10;;;10.40;99.90;;;;;;4424526;32;20177;-69
2021/09/04 05:12:31;;;;;;;7.63;3.30;;;10.50;99.90;;;;;;4424497;32;20193;-69
2021/09/04 05:14:57;;;;;;;7.10;2.93;;;10.50;99.90;;;;;;4423476;32;20131;-69
2021/09/04 05:17:24;;;;;;;5.90;2.60;;;10.60;99.90;;;;;;4422455;32;20247;-69
2021/09/04 05:19:51;;;;;;;5.80;2.80;;;10.70;99.90;;;;;;4424995;32;20131;-69
2021/09/04 05:22:18;;;;;;;5.53;3.10;;;10.70;99.90;;;;;;4422662;32;20123;-69
2021/09/04 05:24:44;;;;;;;5.00;2.77;;;10.80;99.90;;;;;;4424894;32;20577;-69
2021/09/04 05:27:11;;;;;;;5.50;2.97;;;10.80;99.90;;;;;;4423779;32;20154;-69
2021/09/04 05:29:38;;;;;;;6.53;2.80;;;10.90;99.90;;;;;;4423205;32;20155;-70
2021/09/04 05:32:05;;;;;;;5.40;2.50;;;10.90;99.90;;;;;;4425026;32;20173;-70
2021/09/04 05:34:32;;;;;;;5.20;2.90;;;10.90;99.90;;;;;;4422199;32;20130;-70
2021/09/04 05:36:59;;;;;;;5.97;2.70;;;10.90;99.90;;;;;;4424859;32;20132;-69
2021/09/04 05:39:26;;;;;;;5.83;2.67;;;11.00;99.90;;;;;;4423319;32;20124;-69
2021/09/04 05:41:53;;;;;;;8.10;2.80;;;11.00;99.90;;;;;;4423113;32;20161;-68
2021/09/04 05:44:20;;;;;;;4.90;2.40;;;11.00;99.90;;;;;;4424939;32;20138;-69
2021/09/04 05:46:47;;;;;;;4.93;2.60;;;11.10;99.90;;;;;;4422644;32;20557;-69
2021/09/04 05:49:13;;;;;;;4.17;2.17;;;11.20;99.90;;;;;;4424755;32;20173;-68
2021/09/04 05:51:40;;;;;;;4.70;2.40;;;11.30;99.90;;;;;;4423309;32;20131;-69
2021/09/04 05:54:07;;;;;;;4.97;2.10;;;11.30;99.90;;;;;;4423011;32;20135;-69
2021/09/04 05:56:34;;;;;;;4.77;2.63;;;11.40;99.90;;;;;;4424033;32;20550;-69
2021/09/04 05:59:00;;;;;;;3.70;2.30;;;11.40;99.90;;;;;;4424630;32;20135;-69
2021/09/04 06:01:27;;;;;;;7.67;2.40;;;11.50;99.90;;;;;;4424689;32;20127;-69
2021/09/04 06:03:55;;;;;;;3.57;2.20;;;11.60;99.90;;;;;;4424540;32;20166;-68
2021/09/04 06:06:22;;;;;;;4.60;2.00;;;11.60;99.90;;;;;;4422997;32;20211;-69
2021/09/04 06:08:49;;;;;;;6.97;2.40;;;11.70;99.90;;;;;;4422687;32;20123;-69
2021/09/04 06:11:15;;;;;;;5.30;2.10;;;11.70;99.90;;;;;;4423102;32;20160;-69
2021/09/04 06:13:42;;;;;;;7.90;2.50;;;11.80;99.90;;;;;;4424306;32;20135;-68
2021/09/04 06:16:09;;;;;;;5.90;2.20;;;11.80;99.90;;;;;;4422905;32;20220;-69
2021/09/04 06:18:36;;;;;;;3.43;2.00;;;11.80;99.90;;;;;;4424393;32;20441;-68
2021/09/04 06:21:02;;;;;;;4.17;2.00;;;11.80;99.90;;;;;;4424615;32;20135;-69
2021/09/04 06:23:29;;;;;;;3.97;2.00;;;11.90;99.90;;;;;;4425406;32;20138;-69
2021/09/04 06:25:56;;;;;;;6.67;2.60;;;12.00;99.90;;;;;;4426224;32;20192;-69
2021/09/04 06:28:23;;;;;;;6.67;2.60;;;12.10;99.90;;;;;;4426460;32;20406;-69
2021/09/04 06:30:49;;;;;;;5.83;2.53;;;12.20;99.90;;;;;;4426411;32;20131;-69
2021/09/04 06:33:16;;;;;;;5.57;2.53;;;12.40;99.90;;;;;;4426993;32;20208;-69
2021/09/04 06:35:43;;;;;;;8.87;2.70;;;12.50;99.90;;;;;;4426973;32;20123;-69
2021/09/04 06:38:09;;;;;;;7.50;2.50;;;12.60;99.90;;;;;;4426544;32;20127;-69
2021/09/04 06:40:36;;;;;;;10.17;2.37;;;12.70;99.90;;;;;;4425920;32;20170;-69
2021/09/04 06:43:03;;;;;;;5.23;2.13;;;12.80;99.90;;;;;;4425221;32;20199;-69
2021/09/04 06:45:30;;;;;;;5.47;2.40;;;12.90;99.90;;;;;;4426893;32;20388;-69
2021/09/04 06:47:57;;;;;;;7.77;2.40;;;13.00;99.90;;;;;;4425560;32;20420;-69
2021/09/04 06:50:23;;;;;;;4.07;2.20;;;13.10;99.90;;;;;;4425954;32;20127;-70
2021/09/04 06:52:50;;;;;;;7.97;2.47;;;13.20;99.90;;;;;;4427017;32;20127;-69
2021/09/04 06:55:17;;;;;;;4.57;2.30;;;13.30;99.90;;;;;;4424811;32;20185;-69
2021/09/04 06:57:49;;;;;;;4.50;2.07;;;13.50;99.90;;;;;;4425342;32;20180;-69
2021/09/04 07:00:16;;;;;;;4.43;2.03;;;13.70;99.90;;;;;;4425340;32;20242;-70
2021/09/04 07:02:43;;;;;;;3.40;1.70;;;13.80;99.90;;;;;;4426936;32;20175;-69
2021/09/04 07:05:10;;;;;;;6.00;1.60;;;14.00;99.90;;;;;;4425143;32;20155;-69
2021/09/04 07:07:37;;;;;;;4.23;1.83;;;14.10;99.90;;;;;;4425861;32;20184;-69
2021/09/04 07:10:04;;;;;;;5.43;2.10;;;14.10;99.90;;;;;;4426885;32;20138;-69
2021/09/04 07:12:32;;;;;;;4.80;2.20;;;14.10;99.90;;;;;;4426541;32;20361;-69
2021/09/04 07:14:59;;;;;;;6.97;1.90;;;14.10;99.90;;;;;;4424806;32;20131;-69
2021/09/04 07:17:25;;;;;;;3.97;1.80;;;14.00;99.90;;;;;;4425012;32;20239;-69
2021/09/04 07:19:54;;;;;;;7.10;2.00;;;13.90;99.90;;;;;;4425630;32;20449;-69
2021/09/04 07:22:21;;;;;;;3.90;2.00;;;13.90;99.90;;;;;;4425176;32;20183;-70
2021/09/04 07:24:48;;;;;;;3.60;2.00;;;13.90;99.90;;;;;;4425689;32;20139;-69
2021/09/04 07:27:17;;;;;;;4.97;2.10;;;13.90;99.90;;;;;;4425716;32;20334;-69
2021/09/04 07:29:44;;;;;;;4.30;1.90;;;13.80;99.90;;;;;;4424000;32;20131;-69
2021/09/04 07:32:11;;;;;;;4.90;2.00;;;13.90;99.90;;;;;;4423832;32;20127;-69
2021/09/04 07:34:37;;;;;;;3.40;1.60;;;13.90;99.90;;;;;;4423521;32;20165;-68
2021/09/04 07:37:07;;;;;;;4.20;1.43;;;13.90;99.90;;;;;;4424344;32;20135;-71
2021/09/04 07:39:34;;;;;;;2.30;1.50;;;13.90;99.90;;;;;;4424836;32;20128;-69
2021/09/04 07:42:03;;;;;;;3.43;1.50;;;13.90;99.90;;;;;;4425935;32;20186;-70
2021/09/04 07:44:29;;;;;;;6.23;1.67;;;14.00;99.90;;;;;;4423905;32;20565;-69
2021/09/04 07:46:56;;;;;;;3.17;1.30;;;13.90;99.90;;;;;;4425354;32;20223;-69
2021/09/04 07:49:23;;;;;;;7.10;1.60;;;14.00;99.90;;;;;;4424199;32;20131;-68
2021/09/04 07:51:50;;;;;;;4.13;1.43;;;14.10;99.90;;;;;;4425340;32;20169;-69
2021/09/04 07:54:16;;;;;;;3.93;1.30;;;14.10;99.90;;;;;;4425123;32;20146;-68
2021/09/04 07:56:43;;;;;;;3.27;1.30;;;14.10;99.90;;;;;;4424265;32;20529;-69
2021/09/04 07:59:10;;;;;;;2.80;1.30;;;14.20;99.90;;;;;;4424457;32;20150;-69
2021/09/04 08:01:37;;;;;;;3.27;1.40;;;14.30;99.90;;;;;;4426110;32;20179;-69
2021/09/04 08:04:04;;;;;;;3.63;1.40;;;14.30;99.90;;;;;;4424527;32;20522;-68
2021/09/04 08:06:32;;;;;;;2.23;1.40;;;14.30;99.90;;;;;;4425221;32;20154;-69
2021/09/04 08:09:01;;;;;;;2.03;1.20;;;14.40;99.90;;;;;;4424582;32;20232;-68
2021/09/04 08:11:27;;;;;;;3.00;1.50;;;14.60;99.90;;;;;;4426206;32;20459;-69
2021/09/04 08:13:54;;;;;;;3.43;1.30;;;15.00;99.90;;;;;;4423665;32;20477;-69
2021/09/04 08:16:21;;;;;;;2.37;1.20;;;15.20;99.90;;;;;;4425577;32;20151;-69
2021/09/04 08:18:48;;;;;;;3.13;1.00;;;15.50;99.90;;;;;;4424539;32;20189;-69
2021/09/04 08:21:15;;;;;;;6.33;1.30;;;15.80;99.90;;;;;;4425656;32;20131;-69
2021/09/04 08:23:41;;;;;;;2.50;0.90;;;16.10;99.90;;;;;;4423736;32;20481;-69
2021/09/04 08:26:10;;;;;;;1.20;0.80;;;16.30;99.90;;;;;;4425327;32;20157;-69
2021/09/04 08:28:37;;;;;;;0.80;0.80;;;16.70;99.90;;;;;;4423637;32;20199;-69
2021/09/04 08:31:07;;;;;;;1.50;0.80;;;17.10;99.90;;;;;;4423814;32;20149;-68
2021/09/04 08:33:38;;;;;;;1.83;0.80;;;17.20;99.90;;;;;;4423746;32;20135;-69
2021/09/04 08:36:04;;;;;;;4.70;0.87;;;17.30;99.90;;;;;;4424180;32;20197;-69
2021/09/04 08:38:31;;;;;;;1.73;0.80;;;17.50;99.90;;;;;;4424425;32;20541;-68
2021/09/04 08:40:58;;;;;;;1.97;0.90;;;17.90;99.90;;;;;;4424210;32;20200;-69
2021/09/04 08:43:25;;;;;;;0.77;0.60;;;18.30;99.90;;;;;;4425017;32;20507;-69
2021/09/04 08:45:52;;;;;;;2.30;0.90;;;18.80;99.90;;;;;;4422117;32;20508;-69
2021/09/04 08:48:23;;;;;;;1.40;0.70;;;19.10;99.90;;;;;;4423317;32;20187;-68
2021/09/04 08:50:53;;;;;;;2.20;0.97;;;19.40;99.50;;;;;;4424195;32;20346;-69
2021/09/04 08:53:21;;;;;;;1.83;0.70;;;19.50;99.00;;;;;;4424763;32;20173;-69
2021/09/04 08:55:48;;;;;;;4.00;0.90;;;19.60;98.50;;;;;;4424483;32;20142;-69
2021/09/04 08:58:15;;;;;;;1.43;0.70;;;19.60;97.50;;;;;;4424281;32;20139;-70
2021/09/04 09:00:43;;;;;;;1.30;0.70;;;19.90;96.40;;;;;;4424537;32;20397;-69
2021/09/04 09:03:25;;;;;;;3.03;0.70;;;20.20;92.60;;;;;;4423822;32;20491;-67
2021/09/04 09:05:54;;;;;;;1.30;0.50;;;20.50;89.50;;;;;;4424889;32;20184;-70
2021/09/04 09:08:23;;;;;;;1.50;0.70;;;20.60;85.00;;;;;;4422963;32;20226;-69
2021/09/04 09:10:52;;;;;;;1.93;0.90;;;20.90;84.10;;;;;;4424652;32;20443;-71
2021/09/04 09:13:20;;;;;;;1.90;1.13;;;21.20;82.30;;;;;;4424745;32;20440;-71
2021/09/04 09:15:50;;;;;;;4.07;0.73;;;21.60;80.80;;;;;;4424722;32;20155;-70
2021/09/04 09:18:18;;;;;;;1.43;0.80;;;22.00;78.40;;;;;;4425191;32;20163;-71
2021/09/04 09:20:58;;;;;;;0.70;0.60;;;22.50;76.60;;;;;;4424284;32;20149;-70
2021/09/04 09:23:24;;;;;;;0.90;0.70;;;22.90;73.50;;;;;;4424760;32;20139;-69
2021/09/04 09:25:51;;;;;;;1.70;0.60;;;23.10;70.30;;;;;;4424752;32;20181;-71
2021/09/04 09:28:22;;;;;;;1.83;0.90;;;23.30;68.00;;;;;;4424425;32;20131;-70
2021/09/04 09:30:57;;;;;;;4.00;0.70;;;23.30;65.00;;;;;;4424682;32;20127;-69
2021/09/04 09:33:27;;;;;;;2.05;0.62;;;23.60;65.40;;;;;;4423514;32;20173;-70
2021/09/04 09:35:56;;;;;;;2.28;0.80;;;23.70;64.20;;;;;;4422959;32;20127;-70
2021/09/04 09:38:26;;;;;;;1.60;0.90;;;24.10;66.30;;;;;;4423940;32;20139;-70
2021/09/04 09:40:54;;;;;;;1.20;0.68;;;24.50;64.30;;;;;;4423005;32;20139;-68
2021/09/04 09:43:28;;;;;;;1.30;0.60;;;24.90;62.20;;;;;;4424452;32;20440;-67
2021/09/04 09:45:58;;;;;;;1.25;0.60;;;25.20;63.90;;;;;;4423222;32;20233;-69
2021/09/04 09:48:30;;;;;;;2.65;0.90;;;24.90;58.50;;;;;;4422156;32;20509;-68
2021/09/04 09:50:59;;;;;;;1.17;0.70;;;24.80;58.70;;;;;;4422794;32;20575;-68
2021/09/04 09:53:26;;;;;;;1.42;0.70;;;25.10;59.20;;;;;;4423466;32;20177;-69
2021/09/04 09:55:55;;;;;;;1.85;0.75;;;25.30;56.50;;;;;;4422862;32;20123;-69
2021/09/04 09:58:23;;;;;;;1.83;0.93;;;25.50;58.10;;;;;;4426677;32;20140;-69
2021/09/04 10:00:54;;;;;;;1.45;0.70;;;25.60;55.40;;;;;;4427529;32;20417;-69
2021/09/04 10:03:24;;;;;;;1.30;0.50;;;25.40;56.80;;;;;;4427588;32;20438;-69
2021/09/04 10:05:53;;;;;;;2.00;0.70;;;25.60;56.10;;;;;;4426559;32;20188;-69
2021/09/04 10:08:20;;;;;;;1.35;0.70;;;26.10;52.90;;;;;;4426164;32;20153;-69
2021/09/04 10:10:47;;;;;;;1.25;0.80;;;26.30;53.00;;;;;;4425839;32;20506;-69
2021/09/04 10:13:15;;;;;;;1.40;0.70;;;26.40;54.10;;;;;;4426967;32;20158;-69
2021/09/04 10:15:46;;;;;;;1.10;0.70;;;26.60;51.90;;;;;;4425689;32;20535;-69
2021/09/04 10:18:14;;;;;;;2.12;0.60;;;26.70;51.30;;;;;;4425208;32;20149;-69
2021/09/04 10:20:41;;;;;;;2.37;0.60;;;27.00;51.90;;;;;;4427628;32;20357;-69
2021/09/04 10:23:20;;;;;;;1.12;0.80;;;25.90;48.90;;;;;;4425315;32;20140;-69
2021/09/04 10:25:48;;;;;;;2.03;0.90;;;26.00;53.30;;;;;;4427452;32;20211;-68
2021/09/04 10:28:15;;;;;;;1.10;0.60;;;26.40;52.00;;;;;;4427285;32;20123;-68
2021/09/04 10:30:45;;;;;;;0.85;0.60;;;26.70;49.30;;;;;;4426172;32;20131;-67
2021/09/04 10:33:18;;;;;;;1.42;0.70;;;26.90;49.70;;;;;;4426922;32;20136;-67
2021/09/04 10:35:46;;;;;;;1.08;0.60;;;26.70;49.40;;;;;;4426770;32;20162;-69
2021/09/04 10:38:19;;;;;;;0.60;0.50;;;26.90;49.30;;;;;;4427415;32;20394;-68
2021/09/04 10:40:46;;;;;;;2.30;0.65;;;26.40;47.20;;;;;;4426520;32;20410;-69
2021/09/04 10:43:15;;;;;;;1.40;0.88;;;26.70;47.90;;;;;;4425029;32;20449;-69
2021/09/04 10:45:47;;;;;;;2.17;1.00;;;26.90;50.50;;;;;;4426455;32;20219;-69
2021/09/04 10:48:19;;;;;;;3.83;0.90;;;27.10;49.10;;;;;;4424650;32;20320;-69
2021/09/04 10:51:08;;;;;;;2.05;0.82;;;27.40;48.90;;;;;;4425884;32;20131;-69
2021/09/04 10:53:43;;;;;;;1.30;0.70;;;27.90;50.00;;;;;;4425413;32;20136;-69
2021/09/04 10:56:37;;;;;;;1.30;0.73;;;28.30;47.60;;;;;;4426220;32;20135;-69
2021/09/04 10:59:04;;;;;;;1.62;0.80;;;28.70;47.20;;;;;;4424166;32;20167;-70
2021/09/04 11:01:37;;;;;;;3.75;0.85;;;29.20;47.60;;;;;;4426595;32;20131;-70
2021/09/04 11:04:05;;;;;;;1.50;0.77;;;29.60;45.20;;;;;;4425125;32;20180;-70
2021/09/04 11:06:32;;;;;;;1.85;0.77;;;29.50;44.40;;;;;;4426607;32;20560;-69
2021/09/04 11:08:58;;;;;;;3.55;1.00;;;28.90;43.90;;;;;;4426682;32;20173;-69
2021/09/04 11:11:36;;;;;;;1.40;0.75;;;28.80;44.90;;;;;;4425539;32;20131;-69
2021/09/04 11:14:21;;;;;;;1.55;0.75;;;28.50;44.70;;;;;;4424884;32;20131;-69
2021/09/04 11:16:52;;;;;;;0.88;0.65;;;29.00;47.40;;;;;;4424915;32;20220;-69
2021/09/04 11:19:33;;;;;;;1.00;0.60;;;29.30;44.90;;;;;;4425930;32;20222;-68
2021/09/04 11:22:01;;;;;;;1.90;0.82;;;29.40;43.50;;;;;;4424669;32;20123;-68
2021/09/04 11:24:37;;;;;;;1.23;0.80;;;29.10;43.50;;;;;;4426462;32;20185;-67
2021/09/04 11:27:10;;;;;;;1.65;0.85;;;28.60;45.80;;;;;;4426323;32;20387;-69
2021/09/04 11:29:49;;;;;;;1.25;0.80;;;28.20;46.10;;;;;;4424621;32;20229;-68
2021/09/04 11:32:17;;;;;;;1.20;0.70;;;28.40;43.90;;;;;;4425465;32;20134;-68
2021/09/04 11:34:46;;;;;;;1.83;0.77;;;29.00;44.50;;;;;;4424717;32;20519;-68
2021/09/04 11:37:21;;;;;;;2.10;0.80;;;30.00;42.80;;;;;;4426313;32;20119;-70
2021/09/04 11:39:50;;;;;;;1.70;0.70;;;31.10;43.30;;;;;;4426171;32;20127;-69
2021/09/04 11:42:19;;;;;;;1.62;0.70;;;31.70;40.80;;;;;;4424548;32;20131;-69
2021/09/04 11:45:04;;;;;;;4.28;1.67;;;32.40;40.20;;;;;;4424889;32;20131;-70
2021/09/04 11:47:33;;;;;;;1.73;0.73;;;32.70;37.50;;;;;;4424472;32;20173;-69
2021/09/04 11:50:06;;;;;;;1.30;0.80;;;33.10;37.30;;;;;;4424939;32;20173;-70
2021/09/04 11:52:39;;;;;;;1.92;0.80;;;33.30;36.30;;;;;;4424777;32;20165;-70
2021/09/04 11:55:21;;;;;;;1.42;0.88;;;32.90;36.50;;;;;;4424380;32;20131;-69
2021/09/04 11:57:56;;;;;;;1.05;0.62;;;33.30;36.90;;;;;;4425787;32;20230;-68
2021/09/04 12:00:31;;;;;;;1.37;0.90;;;33.80;36.20;;;;;;4425972;32;20122;-69
2021/09/04 12:02:59;;;;;;;2.62;0.80;;;33.90;35.00;;;;;;4425807;32;20316;-69
2021/09/04 12:05:29;;;;;;;1.33;0.80;;;34.20;35.30;;;;;;4423850;32;20469;-68
2021/09/04 12:08:08;;;;;;;1.15;0.73;;;34.70;34.90;;;;;;4424397;32;20177;-69
2021/09/04 12:10:43;;;;;;;2.30;0.90;;;34.80;33.80;;;;;;4425808;32;20337;-69
2021/09/04 12:13:26;;;;;;;1.70;0.88;;;34.60;34.30;;;;;;4425853;32;20191;-69
2021/09/04 12:15:55;;;;;;;2.47;0.98;;;33.90;34.40;;;;;;4423934;32;20214;-69
2021/09/04 12:18:29;;;;;;;1.25;0.90;;;34.10;35.00;;;;;;4424149;32;20127;-69
2021/09/04 12:20:57;;;;;;;1.70;0.80;;;34.40;33.80;;;;;;4423728;32;20139;-69
2021/09/04 12:23:26;;;;;;;2.72;0.93;;;34.60;34.30;;;;;;4425847;32;20123;-68
2021/09/04 12:26:13;;;;;;;1.52;0.90;;;34.30;34.20;;;;;;4424835;32;20136;-68
2021/09/04 12:28:40;;;;;;;1.42;0.90;;;33.30;34.40;;;;;;4422639;32;20203;-68
2021/09/04 12:31:18;;;;;;;2.42;0.88;;;32.60;34.30;;;;;;4424764;32;20123;-70
2021/09/04 12:33:50;;;;;;;2.67;0.77;;;32.10;35.30;;;;;;4424024;32;20130;-68
2021/09/04 12:36:26;;;;;;;0.98;0.70;;;31.70;35.80;;;;;;4425600;32;20135;-67
2021/09/04 12:38:58;;;;;;;1.85;0.80;;;31.20;36.10;;;;;;4425549;32;20172;-69
2021/09/04 12:41:34;;;;;;;1.37;0.77;;;31.20;36.50;;;;;;4424693;32;20158;-68
2021/09/04 12:44:06;;;;;;;4.10;0.82;;;31.80;36.40;;;;;;4425117;32;20119;-68
2021/09/04 12:46:40;;;;;;;2.47;0.80;;;32.20;35.70;;;;;;4423095;32;20146;-69
2021/09/04 12:49:27;;;;;;;1.17;0.80;;;31.90;35.60;;;;;;4425292;32;20131;-69
2021/09/04 12:52:13;;;;;;;1.25;0.80;;;32.10;34.90;;;;;;4424188;32;20146;-69